sensor_id;sensor_type;location;lat;lon;timestamp;P1;durP1;ratioP1;P2;durP2;ratioP2
10729;SDS011;5416;59.258;18.128;2023-04-03T00:00:13;3.57;;;3.47;;
10729;SDS011;5416;59.258;18.128;2023-04-03T00:02:42;3.33;;;3.23;;
10729;SDS011;5416;59.258;18.128;2023-04-03T00:05:09;3.70;;;3.60;;
10729;SDS011;5416;59.258;18.128;2023-04-03T00:07:36;3.20;;;3.10;;
10729;SDS011;5416;59.258;18.128;2023-04-03T00:10:04;3.67;;;3.57;;
10729;SDS011;5416;59.258;18.128;2023-04-03T00:12:32;3.33;;;3.23;;
10729;SDS011;5416;59.258;18.128;2023-04-03T00:14:59;3.07;;;2.97;;
10729;SDS011;5416;59.258;18.128;2023-04-03T00:17:26;3.10;;;3.00;;
10729;SDS011;5416;59.258;18.128;2023-04-03T00:19:55;3.40;;;3.30;;
10729;SDS011;5416;59.258;18.128;2023-04-03T00:22:23;3.53;;;3.43;;
10729;SDS011;5416;59.258;18.128;2023-04-03T00:24:51;3.63;;;3.53;;
10729;SDS011;5416;59.258;18.128;2023-04-03T00:27:19;3.40;;;3.30;;
10729;SDS011;5416;59.258;18.128;2023-04-03T00:29:46;3.13;;;3.03;;
10729;SDS011;5416;59.258;18.128;2023-04-03T00:32:13;3.70;;;3.60;;
10729;SDS011;5416;59.258;18.128;2023-04-03T00:34:41;3.73;;;3.63;;
10729;SDS011;5416;59.258;18.128;2023-04-03T00:37:09;3.47;;;3.37;;
10729;SDS011;5416;59.258;18.128;2023-04-03T00:39:37;3.63;;;3.53;;
10729;SDS011;5416;59.258;18.128;2023-04-03T00:42:04;3.93;;;3.83;;
10729;SDS011;5416;59.258;18.128;2023-04-03T00:47:17;3.87;;;3.77;;
10729;SDS011;5416;59.258;18.128;2023-04-03T00:49:45;3.57;;;3.47;;
10729;SDS011;5416;59.258;18.128;2023-04-03T00:52:16;2.70;;;2.60;;
10729;SDS011;5416;59.258;18.128;2023-04-03T00:54:45;3.63;;;3.53;;
10729;SDS011;5416;59.258;18.128;2023-04-03T00:57:13;3.50;;;3.40;;
10729;SDS011;5416;59.258;18.128;2023-04-03T00:59:41;3.37;;;3.27;;
10729;SDS011;5416;59.258;18.128;2023-04-03T01:02:10;3.30;;;3.20;;
10729;SDS011;5416;59.258;18.128;2023-04-03T01:04:38;3.20;;;3.10;;
10729;SDS011;5416;59.258;18.128;2023-04-03T01:07:06;3.53;;;3.43;;
10729;SDS011;5416;59.258;18.128;2023-04-03T01:09:36;3.07;;;2.97;;
10729;SDS011;5416;59.258;18.128;2023-04-03T01:12:13;3.57;;;3.47;;
10729;SDS011;5416;59.258;18.128;2023-04-03T01:14:41;3.30;;;3.20;;
10729;SDS011;5416;59.258;18.128;2023-04-03T01:17:23;3.73;;;3.63;;
10729;SDS011;5416;59.258;18.128;2023-04-03T01:19:53;3.57;;;3.47;;
10729;SDS011;5416;59.258;18.128;2023-04-03T01:22:24;3.83;;;3.73;;
10729;SDS011;5416;59.258;18.128;2023-04-03T01:24:56;3.73;;;3.63;;
10729;SDS011;5416;59.258;18.128;2023-04-03T01:27:23;3.20;;;3.10;;
10729;SDS011;5416;59.258;18.128;2023-04-03T01:29:51;3.47;;;3.37;;
10729;SDS011;5416;59.258;18.128;2023-04-03T01:32:19;3.17;;;3.07;;
10729;SDS011;5416;59.258;18.128;2023-04-03T01:34:47;3.63;;;3.53;;
10729;SDS011;5416;59.258;18.128;2023-04-03T01:37:14;3.20;;;3.10;;
10729;SDS011;5416;59.258;18.128;2023-04-03T01:39:42;3.87;;;3.77;;
10729;SDS011;5416;59.258;18.128;2023-04-03T01:42:09;3.27;;;3.17;;
10729;SDS011;5416;59.258;18.128;2023-04-03T01:44:36;2.97;;;2.87;;
10729;SDS011;5416;59.258;18.128;2023-04-03T01:47:05;3.10;;;3.00;;
10729;SDS011;5416;59.258;18.128;2023-04-03T01:49:34;3.43;;;3.33;;
10729;SDS011;5416;59.258;18.128;2023-04-03T01:52:01;3.57;;;3.47;;
10729;SDS011;5416;59.258;18.128;2023-04-03T01:54:28;3.50;;;3.40;;
10729;SDS011;5416;59.258;18.128;2023-04-03T01:56:55;2.83;;;2.73;;
10729;SDS011;5416;59.258;18.128;2023-04-03T01:59:23;3.43;;;3.33;;
10729;SDS011;5416;59.258;18.128;2023-04-03T02:01:50;3.00;;;2.90;;
10729;SDS011;5416;59.258;18.128;2023-04-03T02:04:17;3.73;;;3.63;;
10729;SDS011;5416;59.258;18.128;2023-04-03T02:06:46;3.40;;;3.30;;
10729;SDS011;5416;59.258;18.128;2023-04-03T02:09:13;3.27;;;3.17;;
10729;SDS011;5416;59.258;18.128;2023-04-03T02:11:41;3.70;;;3.60;;
10729;SDS011;5416;59.258;18.128;2023-04-03T02:14:08;2.93;;;2.83;;
10729;SDS011;5416;59.258;18.128;2023-04-03T02:16:35;3.40;;;3.30;;
10729;SDS011;5416;59.258;18.128;2023-04-03T02:19:03;3.33;;;3.23;;
10729;SDS011;5416;59.258;18.128;2023-04-03T02:21:30;3.40;;;3.30;;
10729;SDS011;5416;59.258;18.128;2023-04-03T02:23:59;3.40;;;3.30;;
10729;SDS011;5416;59.258;18.128;2023-04-03T02:26:26;2.87;;;2.77;;
10729;SDS011;5416;59.258;18.128;2023-04-03T02:28:53;3.47;;;3.37;;
10729;SDS011;5416;59.258;18.128;2023-04-03T02:31:21;3.43;;;3.33;;
10729;SDS011;5416;59.258;18.128;2023-04-03T02:33:49;3.20;;;3.10;;
10729;SDS011;5416;59.258;18.128;2023-04-03T02:36:16;3.00;;;2.90;;
10729;SDS011;5416;59.258;18.128;2023-04-03T02:38:44;3.87;;;3.77;;
10729;SDS011;5416;59.258;18.128;2023-04-03T02:41:13;3.23;;;3.13;;
10729;SDS011;5416;59.258;18.128;2023-04-03T02:43:40;3.00;;;2.90;;
10729;SDS011;5416;59.258;18.128;2023-04-03T02:46:07;3.17;;;3.07;;
10729;SDS011;5416;59.258;18.128;2023-04-03T02:48:35;3.13;;;3.03;;
10729;SDS011;5416;59.258;18.128;2023-04-03T02:51:02;3.17;;;3.07;;
10729;SDS011;5416;59.258;18.128;2023-04-03T02:53:29;3.00;;;2.90;;
10729;SDS011;5416;59.258;18.128;2023-04-03T02:55:57;3.10;;;3.00;;
10729;SDS011;5416;59.258;18.128;2023-04-03T02:58:25;3.10;;;3.00;;
10729;SDS011;5416;59.258;18.128;2023-04-03T03:00:53;3.33;;;3.23;;
10729;SDS011;5416;59.258;18.128;2023-04-03T03:03:20;3.30;;;3.20;;
10729;SDS011;5416;59.258;18.128;2023-04-03T03:05:48;3.37;;;3.27;;
10729;SDS011;5416;59.258;18.128;2023-04-03T03:08:15;3.50;;;3.40;;
10729;SDS011;5416;59.258;18.128;2023-04-03T03:10:45;2.80;;;2.70;;
10729;SDS011;5416;59.258;18.128;2023-04-03T03:13:12;3.33;;;3.23;;
10729;SDS011;5416;59.258;18.128;2023-04-03T03:15:41;3.63;;;3.53;;
10729;SDS011;5416;59.258;18.128;2023-04-03T03:18:08;2.80;;;2.70;;
10729;SDS011;5416;59.258;18.128;2023-04-03T03:20:35;3.30;;;3.20;;
10729;SDS011;5416;59.258;18.128;2023-04-03T03:23:02;3.27;;;3.17;;
10729;SDS011;5416;59.258;18.128;2023-04-03T03:25:30;3.17;;;3.07;;
10729;SDS011;5416;59.258;18.128;2023-04-03T03:27:57;3.13;;;3.03;;
10729;SDS011;5416;59.258;18.128;2023-04-03T03:30:24;3.10;;;3.00;;
10729;SDS011;5416;59.258;18.128;2023-04-03T03:32:53;3.13;;;3.03;;
10729;SDS011;5416;59.258;18.128;2023-04-03T03:35:20;3.40;;;3.30;;
10729;SDS011;5416;59.258;18.128;2023-04-03T03:37:48;2.90;;;2.80;;
10729;SDS011;5416;59.258;18.128;2023-04-03T03:40:15;3.00;;;2.90;;
10729;SDS011;5416;59.258;18.128;2023-04-03T03:42:42;3.20;;;3.10;;
10729;SDS011;5416;59.258;18.128;2023-04-03T03:45:10;3.27;;;3.17;;
10729;SDS011;5416;59.258;18.128;2023-04-03T03:47:37;3.13;;;3.03;;
10729;SDS011;5416;59.258;18.128;2023-04-03T03:50:07;3.93;;;3.83;;
10729;SDS011;5416;59.258;18.128;2023-04-03T03:52:34;2.97;;;2.87;;
10729;SDS011;5416;59.258;18.128;2023-04-03T03:55:01;3.10;;;3.00;;
10729;SDS011;5416;59.258;18.128;2023-04-03T03:57:29;3.07;;;2.97;;
10729;SDS011;5416;59.258;18.128;2023-04-03T03:59:56;3.70;;;3.60;;
10729;SDS011;5416;59.258;18.128;2023-04-03T04:02:23;3.60;;;3.50;;
10729;SDS011;5416;59.258;18.128;2023-04-03T04:04:51;3.10;;;3.00;;
10729;SDS011;5416;59.258;18.128;2023-04-03T04:07:19;3.17;;;3.07;;
10729;SDS011;5416;59.258;18.128;2023-04-03T04:09:47;3.10;;;3.00;;
10729;SDS011;5416;59.258;18.128;2023-04-03T04:12:14;3.30;;;3.20;;
10729;SDS011;5416;59.258;18.128;2023-04-03T04:14:42;3.43;;;3.33;;
10729;SDS011;5416;59.258;18.128;2023-04-03T04:17:11;3.00;;;2.90;;
10729;SDS011;5416;59.258;18.128;2023-04-03T04:19:38;3.10;;;3.00;;
10729;SDS011;5416;59.258;18.128;2023-04-03T04:22:06;3.20;;;3.10;;
10729;SDS011;5416;59.258;18.128;2023-04-03T04:24:34;3.30;;;3.20;;
10729;SDS011;5416;59.258;18.128;2023-04-03T04:27:02;3.00;;;2.90;;
10729;SDS011;5416;59.258;18.128;2023-04-03T04:29:29;3.17;;;3.07;;
10729;SDS011;5416;59.258;18.128;2023-04-03T04:32:00;3.13;;;3.03;;
10729;SDS011;5416;59.258;18.128;2023-04-03T04:34:28;3.70;;;3.60;;
10729;SDS011;5416;59.258;18.128;2023-04-03T04:36:55;3.37;;;3.27;;
10729;SDS011;5416;59.258;18.128;2023-04-03T04:39:22;2.80;;;2.70;;
10729;SDS011;5416;59.258;18.128;2023-04-03T04:41:53;2.83;;;2.73;;
10729;SDS011;5416;59.258;18.128;2023-04-03T04:44:20;3.23;;;3.13;;
10729;SDS011;5416;59.258;18.128;2023-04-03T04:46:48;3.33;;;3.23;;
10729;SDS011;5416;59.258;18.128;2023-04-03T04:49:15;3.27;;;3.17;;
10729;SDS011;5416;59.258;18.128;2023-04-03T04:51:42;3.27;;;3.17;;
10729;SDS011;5416;59.258;18.128;2023-04-03T04:54:09;3.37;;;3.27;;
10729;SDS011;5416;59.258;18.128;2023-04-03T04:56:37;3.00;;;2.90;;
10729;SDS011;5416;59.258;18.128;2023-04-03T04:59:05;3.00;;;2.90;;
10729;SDS011;5416;59.258;18.128;2023-04-03T05:01:33;3.60;;;3.50;;
10729;SDS011;5416;59.258;18.128;2023-04-03T05:04:00;3.10;;;3.00;;
10729;SDS011;5416;59.258;18.128;2023-04-03T05:06:28;3.03;;;2.93;;
10729;SDS011;5416;59.258;18.128;2023-04-03T05:08:56;3.33;;;3.23;;
10729;SDS011;5416;59.258;18.128;2023-04-03T05:11:24;3.03;;;2.93;;
10729;SDS011;5416;59.258;18.128;2023-04-03T05:13:51;2.97;;;2.87;;
10729;SDS011;5416;59.258;18.128;2023-04-03T05:16:20;3.20;;;3.10;;
10729;SDS011;5416;59.258;18.128;2023-04-03T05:18:47;3.00;;;2.90;;
10729;SDS011;5416;59.258;18.128;2023-04-03T05:21:14;2.90;;;2.80;;
10729;SDS011;5416;59.258;18.128;2023-04-03T05:23:43;3.13;;;3.03;;
10729;SDS011;5416;59.258;18.128;2023-04-03T05:26:10;3.10;;;3.00;;
10729;SDS011;5416;59.258;18.128;2023-04-03T05:28:37;3.10;;;3.00;;
10729;SDS011;5416;59.258;18.128;2023-04-03T05:31:05;3.67;;;3.57;;
10729;SDS011;5416;59.258;18.128;2023-04-03T05:33:34;3.07;;;2.97;;
10729;SDS011;5416;59.258;18.128;2023-04-03T05:36:02;3.37;;;3.27;;
10729;SDS011;5416;59.258;18.128;2023-04-03T05:38:29;3.47;;;3.37;;
10729;SDS011;5416;59.258;18.128;2023-04-03T05:40:57;3.37;;;3.27;;
10729;SDS011;5416;59.258;18.128;2023-04-03T05:43:24;3.13;;;3.03;;
10729;SDS011;5416;59.258;18.128;2023-04-03T05:45:51;3.07;;;2.97;;
10729;SDS011;5416;59.258;18.128;2023-04-03T05:48:18;3.27;;;3.17;;
10729;SDS011;5416;59.258;18.128;2023-04-03T05:50:47;3.33;;;3.23;;
10729;SDS011;5416;59.258;18.128;2023-04-03T05:53:15;4.13;;;4.03;;
10729;SDS011;5416;59.258;18.128;2023-04-03T05:55:44;4.07;;;3.97;;
10729;SDS011;5416;59.258;18.128;2023-04-03T05:58:12;3.30;;;3.20;;
10729;SDS011;5416;59.258;18.128;2023-04-03T06:00:39;4.00;;;3.90;;
10729;SDS011;5416;59.258;18.128;2023-04-03T06:03:07;3.93;;;3.83;;
10729;SDS011;5416;59.258;18.128;2023-04-03T06:05:34;4.03;;;3.93;;
10729;SDS011;5416;59.258;18.128;2023-04-03T06:08:03;3.80;;;3.70;;
10729;SDS011;5416;59.258;18.128;2023-04-03T06:10:30;4.10;;;4.00;;
10729;SDS011;5416;59.258;18.128;2023-04-03T06:12:58;3.73;;;3.63;;
10729;SDS011;5416;59.258;18.128;2023-04-03T06:15:25;4.23;;;4.13;;
10729;SDS011;5416;59.258;18.128;2023-04-03T06:17:52;4.07;;;3.97;;
10729;SDS011;5416;59.258;18.128;2023-04-03T06:20:20;3.77;;;3.67;;
10729;SDS011;5416;59.258;18.128;2023-04-03T06:22:47;4.23;;;4.13;;
10729;SDS011;5416;59.258;18.128;2023-04-03T06:25:17;4.03;;;3.93;;
10729;SDS011;5416;59.258;18.128;2023-04-03T06:27:45;3.70;;;3.60;;
10729;SDS011;5416;59.258;18.128;2023-04-03T06:30:12;4.03;;;3.93;;
10729;SDS011;5416;59.258;18.128;2023-04-03T06:32:39;4.43;;;4.33;;
10729;SDS011;5416;59.258;18.128;2023-04-03T06:35:08;3.97;;;3.87;;
10729;SDS011;5416;59.258;18.128;2023-04-03T06:37:35;4.03;;;3.93;;
10729;SDS011;5416;59.258;18.128;2023-04-03T06:40:03;3.97;;;3.87;;
10729;SDS011;5416;59.258;18.128;2023-04-03T06:42:32;4.33;;;4.23;;
10729;SDS011;5416;59.258;18.128;2023-04-03T06:44:59;3.80;;;3.70;;
10729;SDS011;5416;59.258;18.128;2023-04-03T06:47:27;3.87;;;3.77;;
10729;SDS011;5416;59.258;18.128;2023-04-03T06:49:54;4.10;;;4.00;;
10729;SDS011;5416;59.258;18.128;2023-04-03T06:52:22;3.57;;;3.47;;
10729;SDS011;5416;59.258;18.128;2023-04-03T06:54:50;3.10;;;3.00;;
10729;SDS011;5416;59.258;18.128;2023-04-03T06:57:22;3.53;;;3.43;;
10729;SDS011;5416;59.258;18.128;2023-04-03T06:59:51;3.57;;;3.47;;
10729;SDS011;5416;59.258;18.128;2023-04-03T07:02:19;4.20;;;4.10;;
10729;SDS011;5416;59.258;18.128;2023-04-03T07:04:47;4.00;;;3.90;;
10729;SDS011;5416;59.258;18.128;2023-04-03T07:07:14;4.20;;;4.10;;
10729;SDS011;5416;59.258;18.128;2023-04-03T07:09:42;3.83;;;3.73;;
10729;SDS011;5416;59.258;18.128;2023-04-03T07:12:10;3.67;;;3.57;;
10729;SDS011;5416;59.258;18.128;2023-04-03T07:14:37;3.80;;;3.70;;
10729;SDS011;5416;59.258;18.128;2023-04-03T07:17:05;3.97;;;3.87;;
10729;SDS011;5416;59.258;18.128;2023-04-03T07:19:33;3.93;;;3.83;;
10729;SDS011;5416;59.258;18.128;2023-04-03T07:22:00;3.97;;;3.87;;
10729;SDS011;5416;59.258;18.128;2023-04-03T07:24:28;3.83;;;3.73;;
10729;SDS011;5416;59.258;18.128;2023-04-03T07:26:56;3.90;;;3.80;;
10729;SDS011;5416;59.258;18.128;2023-04-03T07:29:23;3.60;;;3.50;;
10729;SDS011;5416;59.258;18.128;2023-04-03T07:31:50;3.77;;;3.67;;
10729;SDS011;5416;59.258;18.128;2023-04-03T07:34:19;4.10;;;4.00;;
10729;SDS011;5416;59.258;18.128;2023-04-03T07:36:47;3.90;;;3.80;;
10729;SDS011;5416;59.258;18.128;2023-04-03T07:39:14;3.60;;;3.50;;
10729;SDS011;5416;59.258;18.128;2023-04-03T07:41:41;3.63;;;3.53;;
10729;SDS011;5416;59.258;18.128;2023-04-03T07:44:09;3.83;;;3.72;;
10729;SDS011;5416;59.258;18.128;2023-04-03T07:46:36;3.90;;;3.80;;
10729;SDS011;5416;59.258;18.128;2023-04-03T07:49:04;3.67;;;3.58;;
10729;SDS011;5416;59.258;18.128;2023-04-03T07:51:32;3.55;;;3.45;;
10729;SDS011;5416;59.258;18.128;2023-04-03T07:54:00;3.85;;;3.75;;
10729;SDS011;5416;59.258;18.128;2023-04-03T07:56:27;3.38;;;3.28;;
10729;SDS011;5416;59.258;18.128;2023-04-03T07:58:55;4.10;;;4.00;;
10729;SDS011;5416;59.258;18.128;2023-04-03T08:01:22;3.72;;;3.63;;
10729;SDS011;5416;59.258;18.128;2023-04-03T08:03:49;3.63;;;3.53;;
10729;SDS011;5416;59.258;18.128;2023-04-03T08:06:17;3.95;;;3.85;;
10729;SDS011;5416;59.258;18.128;2023-04-03T08:08:45;4.07;;;3.97;;
10729;SDS011;5416;59.258;18.128;2023-04-03T08:11:13;3.97;;;3.87;;
10729;SDS011;5416;59.258;18.128;2023-04-03T08:13:40;4.03;;;3.93;;
10729;SDS011;5416;59.258;18.128;2023-04-03T08:16:09;4.10;;;4.00;;
10729;SDS011;5416;59.258;18.128;2023-04-03T08:18:36;4.27;;;4.17;;
10729;SDS011;5416;59.258;18.128;2023-04-03T08:21:05;3.43;;;3.33;;
10729;SDS011;5416;59.258;18.128;2023-04-03T08:23:33;3.85;;;3.75;;
10729;SDS011;5416;59.258;18.128;2023-04-03T08:26:06;3.53;;;3.42;;
10729;SDS011;5416;59.258;18.128;2023-04-03T08:28:33;3.63;;;3.53;;
10729;SDS011;5416;59.258;18.128;2023-04-03T08:31:04;3.90;;;3.80;;
10729;SDS011;5416;59.258;18.128;2023-04-03T08:33:32;3.83;;;3.72;;
10729;SDS011;5416;59.258;18.128;2023-04-03T08:36:01;3.25;;;3.15;;
10729;SDS011;5416;59.258;18.128;2023-04-03T08:38:28;4.03;;;3.92;;
10729;SDS011;5416;59.258;18.128;2023-04-03T08:41:02;3.70;;;3.60;;
10729;SDS011;5416;59.258;18.128;2023-04-03T08:43:35;3.70;;;3.60;;
10729;SDS011;5416;59.258;18.128;2023-04-03T08:46:05;3.97;;;3.87;;
10729;SDS011;5416;59.258;18.128;2023-04-03T08:48:33;4.17;;;4.07;;
10729;SDS011;5416;59.258;18.128;2023-04-03T08:51:02;4.10;;;4.00;;
10729;SDS011;5416;59.258;18.128;2023-04-03T08:53:32;4.10;;;4.00;;
10729;SDS011;5416;59.258;18.128;2023-04-03T08:56:00;3.67;;;3.57;;
10729;SDS011;5416;59.258;18.128;2023-04-03T08:58:30;3.80;;;3.70;;
10729;SDS011;5416;59.258;18.128;2023-04-03T09:01:02;3.63;;;3.53;;
10729;SDS011;5416;59.258;18.128;2023-04-03T09:03:30;3.75;;;3.65;;
10729;SDS011;5416;59.258;18.128;2023-04-03T09:05:59;3.30;;;3.20;;
10729;SDS011;5416;59.258;18.128;2023-04-03T09:08:28;3.88;;;3.78;;
10729;SDS011;5416;59.258;18.128;2023-04-03T09:11:04;3.95;;;3.85;;
10729;SDS011;5416;59.258;18.128;2023-04-03T09:13:34;3.55;;;3.45;;
10729;SDS011;5416;59.258;18.128;2023-04-03T09:16:05;3.67;;;3.58;;
10729;SDS011;5416;59.258;18.128;2023-04-03T09:18:37;3.88;;;3.78;;
10729;SDS011;5416;59.258;18.128;2023-04-03T09:21:08;3.75;;;3.65;;
10729;SDS011;5416;59.258;18.128;2023-04-03T09:23:41;3.90;;;3.80;;
10729;SDS011;5416;59.258;18.128;2023-04-03T09:26:13;4.30;;;4.20;;
10729;SDS011;5416;59.258;18.128;2023-04-03T09:28:41;3.83;;;3.72;;
10729;SDS011;5416;59.258;18.128;2023-04-03T09:31:14;3.80;;;3.70;;
10729;SDS011;5416;59.258;18.128;2023-04-03T09:33:43;3.85;;;3.75;;
10729;SDS011;5416;59.258;18.128;2023-04-03T09:36:11;3.70;;;3.60;;
10729;SDS011;5416;59.258;18.128;2023-04-03T09:38:38;3.83;;;3.72;;
10729;SDS011;5416;59.258;18.128;2023-04-03T09:41:12;4.20;;;4.10;;
10729;SDS011;5416;59.258;18.128;2023-04-03T09:43:41;3.65;;;3.55;;
10729;SDS011;5416;59.258;18.128;2023-04-03T09:46:24;3.78;;;3.67;;
10729;SDS011;5416;59.258;18.128;2023-04-03T09:48:52;4.15;;;4.05;;
10729;SDS011;5416;59.258;18.128;2023-04-03T09:51:24;4.00;;;3.90;;
10729;SDS011;5416;59.258;18.128;2023-04-03T09:53:52;3.78;;;3.67;;
10729;SDS011;5416;59.258;18.128;2023-04-03T09:56:21;3.40;;;3.30;;
10729;SDS011;5416;59.258;18.128;2023-04-03T09:58:48;3.58;;;3.47;;
10729;SDS011;5416;59.258;18.128;2023-04-03T10:01:24;3.95;;;3.85;;
10729;SDS011;5416;59.258;18.128;2023-04-03T10:04:06;4.35;;;4.25;;
10729;SDS011;5416;59.258;18.128;2023-04-03T10:06:34;3.65;;;3.55;;
10729;SDS011;5416;59.258;18.128;2023-04-03T10:09:02;3.85;;;3.75;;
10729;SDS011;5416;59.258;18.128;2023-04-03T10:11:30;3.92;;;3.83;;
10729;SDS011;5416;59.258;18.128;2023-04-03T10:13:58;4.07;;;3.97;;
10729;SDS011;5416;59.258;18.128;2023-04-03T10:16:28;3.58;;;3.47;;
10729;SDS011;5416;59.258;18.128;2023-04-03T10:19:03;3.55;;;3.45;;
10729;SDS011;5416;59.258;18.128;2023-04-03T10:21:34;3.97;;;3.88;;
10729;SDS011;5416;59.258;18.128;2023-04-03T10:24:05;4.03;;;3.92;;
10729;SDS011;5416;59.258;18.128;2023-04-03T10:26:35;3.40;;;3.30;;
10729;SDS011;5416;59.258;18.128;2023-04-03T10:29:06;3.63;;;3.53;;
10729;SDS011;5416;59.258;18.128;2023-04-03T10:31:39;4.15;;;4.05;;
10729;SDS011;5416;59.258;18.128;2023-04-03T10:34:12;3.90;;;3.80;;
10729;SDS011;5416;59.258;18.128;2023-04-03T10:36:46;4.03;;;3.93;;
10729;SDS011;5416;59.258;18.128;2023-04-03T10:39:18;3.83;;;3.73;;
10729;SDS011;5416;59.258;18.128;2023-04-03T10:41:55;4.17;;;4.07;;
10729;SDS011;5416;59.258;18.128;2023-04-03T10:44:26;4.10;;;4.00;;
10729;SDS011;5416;59.258;18.128;2023-04-03T10:47:00;4.00;;;3.90;;
10729;SDS011;5416;59.258;18.128;2023-04-03T10:49:32;4.27;;;4.17;;
10729;SDS011;5416;59.258;18.128;2023-04-03T10:52:06;4.50;;;4.40;;
10729;SDS011;5416;59.258;18.128;2023-04-03T10:54:36;4.10;;;4.00;;
10729;SDS011;5416;59.258;18.128;2023-04-03T10:57:05;3.77;;;3.67;;
10729;SDS011;5416;59.258;18.128;2023-04-03T10:59:34;4.30;;;4.10;;
10729;SDS011;5416;59.258;18.128;2023-04-03T11:02:06;4.03;;;3.93;;
10729;SDS011;5416;59.258;18.128;2023-04-03T11:04:34;4.33;;;4.13;;
10729;SDS011;5416;59.258;18.128;2023-04-03T11:07:07;4.20;;;4.10;;
10729;SDS011;5416;59.258;18.128;2023-04-03T11:09:35;4.17;;;4.07;;
10729;SDS011;5416;59.258;18.128;2023-04-03T11:12:06;4.00;;;3.90;;
10729;SDS011;5416;59.258;18.128;2023-04-03T11:14:37;3.33;;;3.23;;
10729;SDS011;5416;59.258;18.128;2023-04-03T11:17:09;3.83;;;3.73;;
10729;SDS011;5416;59.258;18.128;2023-04-03T11:19:39;3.85;;;3.75;;
10729;SDS011;5416;59.258;18.128;2023-04-03T11:22:10;3.80;;;3.70;;
10729;SDS011;5416;59.258;18.128;2023-04-03T11:24:41;3.60;;;3.50;;
10729;SDS011;5416;59.258;18.128;2023-04-03T11:27:09;4.37;;;4.27;;
10729;SDS011;5416;59.258;18.128;2023-04-03T11:29:41;3.97;;;3.87;;
10729;SDS011;5416;59.258;18.128;2023-04-03T11:32:16;3.80;;;3.70;;
10729;SDS011;5416;59.258;18.128;2023-04-03T11:34:48;4.50;;;4.40;;
10729;SDS011;5416;59.258;18.128;2023-04-03T11:37:27;3.87;;;3.77;;
10729;SDS011;5416;59.258;18.128;2023-04-03T11:39:56;4.00;;;3.90;;
10729;SDS011;5416;59.258;18.128;2023-04-03T11:42:25;4.50;;;4.40;;
10729;SDS011;5416;59.258;18.128;2023-04-03T11:47:47;4.20;;;4.10;;
10729;SDS011;5416;59.258;18.128;2023-04-03T11:52:58;4.17;;;4.07;;
10729;SDS011;5416;59.258;18.128;2023-04-03T11:58:13;4.53;;;4.40;;
10729;SDS011;5416;59.258;18.128;2023-04-03T12:00:57;3.83;;;3.73;;
10729;SDS011;5416;59.258;18.128;2023-04-03T12:12:28;4.10;;;4.00;;
10729;SDS011;5416;59.258;18.128;2023-04-03T12:15:06;4.20;;;4.10;;
10729;SDS011;5416;59.258;18.128;2023-04-03T12:17:38;4.43;;;4.33;;
10729;SDS011;5416;59.258;18.128;2023-04-03T12:28:14;3.70;;;3.60;;
10729;SDS011;5416;59.258;18.128;2023-04-03T12:30:41;4.30;;;4.20;;
10729;SDS011;5416;59.258;18.128;2023-04-03T12:33:13;4.30;;;4.20;;
10729;SDS011;5416;59.258;18.128;2023-04-03T12:35:47;4.37;;;4.27;;
10729;SDS011;5416;59.258;18.128;2023-04-03T12:38:22;3.97;;;3.87;;
10729;SDS011;5416;59.258;18.128;2023-04-03T12:40:56;4.40;;;4.30;;
10729;SDS011;5416;59.258;18.128;2023-04-03T12:43:38;4.97;;;4.77;;
10729;SDS011;5416;59.258;18.128;2023-04-03T12:46:10;3.67;;;3.57;;
10729;SDS011;5416;59.258;18.128;2023-04-03T12:48:46;3.90;;;3.80;;
10729;SDS011;5416;59.258;18.128;2023-04-03T12:51:14;4.53;;;4.43;;
10729;SDS011;5416;59.258;18.128;2023-04-03T12:53:41;4.53;;;4.43;;
10729;SDS011;5416;59.258;18.128;2023-04-03T12:56:19;4.17;;;4.07;;
10729;SDS011;5416;59.258;18.128;2023-04-03T12:58:48;4.77;;;4.57;;
10729;SDS011;5416;59.258;18.128;2023-04-03T13:01:16;3.77;;;3.67;;
10729;SDS011;5416;59.258;18.128;2023-04-03T13:03:45;4.17;;;4.07;;
10729;SDS011;5416;59.258;18.128;2023-04-03T13:06:14;4.17;;;4.07;;
10729;SDS011;5416;59.258;18.128;2023-04-03T13:08:48;4.57;;;4.47;;
10729;SDS011;5416;59.258;18.128;2023-04-03T13:11:15;5.33;;;5.13;;
10729;SDS011;5416;59.258;18.128;2023-04-03T13:13:54;3.80;;;3.70;;
10729;SDS011;5416;59.258;18.128;2023-04-03T13:16:22;4.40;;;4.30;;
10729;SDS011;5416;59.258;18.128;2023-04-03T13:18:51;4.30;;;4.20;;
10729;SDS011;5416;59.258;18.128;2023-04-03T13:21:19;4.07;;;3.97;;
10729;SDS011;5416;59.258;18.128;2023-04-03T13:23:50;3.90;;;3.80;;
10729;SDS011;5416;59.258;18.128;2023-04-03T13:26:18;4.40;;;4.30;;
10729;SDS011;5416;59.258;18.128;2023-04-03T13:28:47;4.20;;;4.10;;
10729;SDS011;5416;59.258;18.128;2023-04-03T13:31:20;4.53;;;4.43;;
10729;SDS011;5416;59.258;18.128;2023-04-03T13:33:54;4.43;;;4.33;;
10729;SDS011;5416;59.258;18.128;2023-04-03T13:36:22;4.47;;;4.37;;
10729;SDS011;5416;59.258;18.128;2023-04-03T13:38:57;4.50;;;4.40;;
10729;SDS011;5416;59.258;18.128;2023-04-03T13:41:25;4.17;;;4.07;;
10729;SDS011;5416;59.258;18.128;2023-04-03T13:43:53;3.90;;;3.80;;
10729;SDS011;5416;59.258;18.128;2023-04-03T13:46:25;4.17;;;4.07;;
10729;SDS011;5416;59.258;18.128;2023-04-03T13:48:54;3.80;;;3.70;;
10729;SDS011;5416;59.258;18.128;2023-04-03T13:51:22;4.37;;;4.27;;
10729;SDS011;5416;59.258;18.128;2023-04-03T13:53:51;3.70;;;3.60;;
10729;SDS011;5416;59.258;18.128;2023-04-03T13:56:21;4.33;;;4.23;;
10729;SDS011;5416;59.258;18.128;2023-04-03T14:01:42;4.10;;;4.00;;
10729;SDS011;5416;59.258;18.128;2023-04-03T14:04:11;3.97;;;3.87;;
10729;SDS011;5416;59.258;18.128;2023-04-03T14:06:39;3.97;;;3.87;;
10729;SDS011;5416;59.258;18.128;2023-04-03T14:09:07;4.27;;;4.17;;
10729;SDS011;5416;59.258;18.128;2023-04-03T14:11:34;3.97;;;3.87;;
10729;SDS011;5416;59.258;18.128;2023-04-03T14:14:02;4.30;;;4.20;;
10729;SDS011;5416;59.258;18.128;2023-04-03T14:16:31;3.90;;;3.80;;
10729;SDS011;5416;59.258;18.128;2023-04-03T14:19:00;3.97;;;3.87;;
10729;SDS011;5416;59.258;18.128;2023-04-03T14:21:28;4.03;;;3.93;;
10729;SDS011;5416;59.258;18.128;2023-04-03T14:23:55;4.10;;;4.00;;
10729;SDS011;5416;59.258;18.128;2023-04-03T14:26:23;4.23;;;4.13;;
10729;SDS011;5416;59.258;18.128;2023-04-03T14:28:52;4.30;;;4.20;;
10729;SDS011;5416;59.258;18.128;2023-04-03T14:31:20;3.83;;;3.73;;
10729;SDS011;5416;59.258;18.128;2023-04-03T14:33:47;3.47;;;3.37;;
10729;SDS011;5416;59.258;18.128;2023-04-03T14:36:17;3.97;;;3.87;;
10729;SDS011;5416;59.258;18.128;2023-04-03T14:38:45;3.83;;;3.73;;
10729;SDS011;5416;59.258;18.128;2023-04-03T14:41:13;4.17;;;4.07;;
10729;SDS011;5416;59.258;18.128;2023-04-03T14:43:40;3.50;;;3.40;;
10729;SDS011;5416;59.258;18.128;2023-04-03T14:46:10;4.20;;;4.10;;
10729;SDS011;5416;59.258;18.128;2023-04-03T14:48:39;3.83;;;3.73;;
10729;SDS011;5416;59.258;18.128;2023-04-03T14:51:06;4.40;;;4.30;;
10729;SDS011;5416;59.258;18.128;2023-04-03T14:53:35;4.30;;;4.20;;
10729;SDS011;5416;59.258;18.128;2023-04-03T14:56:04;4.03;;;3.93;;
10729;SDS011;5416;59.258;18.128;2023-04-03T14:58:31;4.40;;;4.30;;
10729;SDS011;5416;59.258;18.128;2023-04-03T15:01:01;3.63;;;3.53;;
10729;SDS011;5416;59.258;18.128;2023-04-03T15:03:28;4.70;;;4.50;;
10729;SDS011;5416;59.258;18.128;2023-04-03T15:05:56;3.93;;;3.83;;
10729;SDS011;5416;59.258;18.128;2023-04-03T15:08:25;4.73;;;4.53;;
10729;SDS011;5416;59.258;18.128;2023-04-03T15:10:55;4.10;;;4.00;;
10729;SDS011;5416;59.258;18.128;2023-04-03T15:13:23;4.70;;;4.50;;
10729;SDS011;5416;59.258;18.128;2023-04-03T15:15:50;4.63;;;4.50;;
10729;SDS011;5416;59.258;18.128;2023-04-03T15:18:19;4.30;;;4.20;;
10729;SDS011;5416;59.258;18.128;2023-04-03T15:20:46;4.07;;;3.97;;
10729;SDS011;5416;59.258;18.128;2023-04-03T15:23:14;3.17;;;3.07;;
10729;SDS011;5416;59.258;18.128;2023-04-03T15:25:42;4.30;;;4.20;;
10729;SDS011;5416;59.258;18.128;2023-04-03T15:28:13;3.87;;;3.77;;